createdAt,value
2022-09-07T00:00:20.999Z,18.00
2022-09-07T00:01:54.029Z,18.00
2022-09-07T00:03:27.602Z,18.00
2022-09-07T00:05:00.896Z,18.00
2022-09-07T00:06:35.172Z,17.90
2022-09-07T00:08:07.118Z,17.90
2022-09-07T00:09:40.192Z,17.90
2022-09-07T00:11:16.025Z,17.90
2022-09-07T00:12:48.768Z,17.80
2022-09-07T00:14:21.946Z,17.80
2022-09-07T00:15:54.850Z,17.80
2022-09-07T00:17:28.257Z,17.80
2022-09-07T00:19:04.002Z,17.80
2022-09-07T00:20:36.100Z,17.80
2022-09-07T00:22:10.466Z,17.80
2022-09-07T00:23:44.311Z,17.80
2022-09-07T00:25:17.588Z,17.80
2022-09-07T00:26:50.370Z,17.80
2022-09-07T00:28:23.457Z,17.80
2022-09-07T00:29:57.213Z,17.80
2022-09-07T00:31:31.638Z,17.80
2022-09-07T00:33:03.812Z,17.80
2022-09-07T00:34:36.847Z,17.80
2022-09-07T00:36:08.991Z,17.80
2022-09-07T00:37:43.417Z,17.90
2022-09-07T00:39:16.487Z,17.90
2022-09-07T00:40:49.578Z,17.90
2022-09-07T00:42:24.968Z,17.80
2022-09-07T00:43:59.679Z,17.80
2022-09-07T00:45:33.409Z,17.80
2022-09-07T00:47:06.472Z,18.00
2022-09-07T00:48:44.188Z,17.90
2022-09-07T00:50:21.547Z,17.90
2022-09-07T00:51:58.480Z,17.90
2022-09-07T00:53:38.241Z,18.00
2022-09-07T00:55:14.407Z,18.00
2022-09-07T00:56:49.882Z,18.00
2022-09-07T00:58:24.343Z,18.00
2022-09-07T00:59:59.227Z,18.00
2022-09-07T01:01:33.551Z,18.00
2022-09-07T01:03:07.777Z,17.90
2022-09-07T01:04:41.392Z,17.80
2022-09-07T01:06:18.838Z,17.90
2022-09-07T01:07:51.509Z,17.80
2022-09-07T01:09:28.314Z,17.80
2022-09-07T01:11:01.918Z,17.80
2022-09-07T01:12:34.019Z,17.70
2022-09-07T01:14:10.061Z,17.70
2022-09-07T01:15:50.491Z,17.70
2022-09-07T01:17:32.778Z,17.60
2022-09-07T01:19:25.398Z,17.60
2022-09-07T01:21:19.463Z,17.50
2022-09-07T01:23:29.388Z,17.50
2022-09-07T01:25:10.946Z,17.40
2022-09-07T01:27:13.234Z,17.30
2022-09-07T01:28:55.028Z,17.30
2022-09-07T01:30:32.322Z,17.30
2022-09-07T01:32:12.933Z,17.20
2022-09-07T01:33:55.652Z,17.20
2022-09-07T01:35:37.901Z,17.20
2022-09-07T01:37:17.990Z,17.20
2022-09-07T01:38:55.945Z,17.20
2022-09-07T01:40:37.998Z,17.10
2022-09-07T01:42:14.034Z,17.10
2022-09-07T01:43:54.393Z,17.10
2022-09-07T01:45:31.814Z,17.10
2022-09-07T01:47:10.797Z,17.10
2022-09-07T01:48:46.169Z,17.10
2022-09-07T01:50:22.446Z,17.00
2022-09-07T01:52:02.171Z,17.10
2022-09-07T01:53:39.234Z,17.10
2022-09-07T01:55:16.916Z,17.10
2022-09-07T01:56:54.437Z,17.10
2022-09-07T01:58:31.894Z,17.10
2022-09-07T02:00:11.396Z,17.10
2022-09-07T02:01:53.352Z,17.10
2022-09-07T02:03:32.180Z,17.10
2022-09-07T02:05:10.322Z,17.10
2022-09-07T02:06:49.367Z,17.10
2022-09-07T02:08:27.473Z,17.10
2022-09-07T02:10:05.289Z,17.10
2022-09-07T02:11:41.016Z,17.20
2022-09-07T02:13:19.195Z,17.20
2022-09-07T02:14:57.350Z,17.20
2022-09-07T02:16:33.757Z,17.20
2022-09-07T02:18:09.716Z,17.20
2022-09-07T02:19:49.653Z,17.20
2022-09-07T02:21:30.122Z,17.10
2022-09-07T02:23:07.794Z,17.10
2022-09-07T02:24:45.282Z,17.10
2022-09-07T02:26:22.033Z,17.10
2022-09-07T02:27:59.110Z,17.10
2022-09-07T02:29:32.771Z,17.00
2022-09-07T02:31:06.657Z,17.00
2022-09-07T02:32:41.456Z,17.00
2022-09-07T02:34:15.437Z,17.00
2022-09-07T02:35:48.984Z,17.00
2022-09-07T02:37:22.740Z,17.00
2022-09-07T02:38:56.030Z,17.00
2022-09-07T02:40:29.108Z,17.00
2022-09-07T02:42:02.460Z,17.00
2022-09-07T02:43:35.913Z,17.00
2022-09-07T02:45:12.026Z,17.00
2022-09-07T02:47:01.087Z,17.00
2022-09-07T02:48:44.321Z,17.00
2022-09-07T02:50:39.054Z,17.00
2022-09-07T02:52:22.361Z,17.00
2022-09-07T02:54:13.808Z,17.00
2022-09-07T02:55:57.003Z,17.00
2022-09-07T02:57:39.351Z,17.00
2022-09-07T02:59:25.724Z,17.00
2022-09-07T03:01:08.767Z,17.00
2022-09-07T03:02:53.059Z,16.90
2022-09-07T03:04:40.774Z,16.90
2022-09-07T03:06:20.318Z,16.80
2022-09-07T03:08:01.150Z,16.80
2022-09-07T03:09:40.444Z,16.80
2022-09-07T03:11:14.383Z,16.80
2022-09-07T03:12:49.816Z,16.80
2022-09-07T03:14:24.986Z,16.80
2022-09-07T03:15:57.523Z,16.80
2022-09-07T03:17:33.469Z,16.70
2022-09-07T03:19:05.958Z,16.80
2022-09-07T03:20:40.488Z,16.80
2022-09-07T03:22:13.586Z,16.80
2022-09-07T03:23:51.169Z,16.80
2022-09-07T03:25:25.275Z,16.80
2022-09-07T03:26:58.957Z,16.80
2022-09-07T03:28:32.176Z,16.90
2022-09-07T03:30:05.939Z,16.90
2022-09-07T03:31:39.093Z,16.90
2022-09-07T03:33:12.273Z,16.90
2022-09-07T03:34:45.403Z,16.90
2022-09-07T03:36:19.902Z,17.00
2022-09-07T03:37:52.999Z,16.90
2022-09-07T03:39:27.304Z,16.90
2022-09-07T03:41:00.633Z,16.90
2022-09-07T03:42:33.510Z,17.00
2022-09-07T03:44:07.333Z,17.00
2022-09-07T03:45:40.508Z,17.00
2022-09-07T03:47:13.438Z,17.00
2022-09-07T03:48:48.145Z,17.00
2022-09-07T03:50:20.579Z,17.10
2022-09-07T03:51:54.946Z,17.10
2022-09-07T03:53:27.296Z,17.10
2022-09-07T03:55:00.332Z,17.10
2022-09-07T03:56:33.484Z,17.10
2022-09-07T03:58:06.551Z,17.10
2022-09-07T03:59:39.935Z,17.10
2022-09-07T04:01:15.836Z,17.10
2022-09-07T04:02:49.424Z,17.10
2022-09-07T04:04:26.921Z,17.00
2022-09-07T04:05:59.742Z,17.00
2022-09-07T04:07:34.107Z,17.00
2022-09-07T04:09:08.807Z,17.00
2022-09-07T04:10:42.302Z,17.00
2022-09-07T04:12:15.260Z,17.00
2022-09-07T04:13:48.351Z,17.00
2022-09-07T04:15:21.307Z,16.90
2022-09-07T04:16:54.517Z,16.90
2022-09-07T04:18:27.446Z,16.90
2022-09-07T04:20:00.509Z,17.00
2022-09-07T04:21:34.697Z,17.00
2022-09-07T04:23:09.069Z,17.00
2022-09-07T04:24:42.099Z,17.10
2022-09-07T04:26:16.022Z,17.20
2022-09-07T04:27:48.993Z,17.20
2022-09-07T04:29:22.127Z,17.40
2022-09-07T04:30:55.091Z,17.50
2022-09-07T04:32:28.141Z,17.50
2022-09-07T04:34:01.361Z,17.60
2022-09-07T04:35:36.814Z,17.60
2022-09-07T04:37:09.855Z,17.60
2022-09-07T04:38:43.622Z,17.70
2022-09-07T04:40:16.868Z,17.70
2022-09-07T04:41:48.724Z,17.70
2022-09-07T04:43:22.019Z,17.80
2022-09-07T04:44:54.827Z,17.80
2022-09-07T04:46:30.218Z,17.80
2022-09-07T04:48:03.896Z,17.80
2022-09-07T04:49:37.104Z,17.70
2022-09-07T04:51:10.825Z,17.80
2022-09-07T04:52:43.962Z,17.80
2022-09-07T04:54:18.479Z,17.80
2022-09-07T04:55:51.625Z,17.90
2022-09-07T04:57:26.525Z,17.90
2022-09-07T04:59:02.586Z,18.00
2022-09-07T05:00:35.560Z,18.10
2022-09-07T05:02:08.696Z,18.10
2022-09-07T05:03:42.503Z,18.10
2022-09-07T05:05:15.953Z,18.20
2022-09-07T05:06:49.082Z,18.20
2022-09-07T05:08:22.300Z,18.30
2022-09-07T05:09:56.702Z,18.40
2022-09-07T05:11:30.355Z,18.50
2022-09-07T05:13:03.793Z,18.50
2022-09-07T05:14:36.892Z,18.60
2022-09-07T05:16:11.579Z,18.60
2022-09-07T05:17:44.777Z,18.70
2022-09-07T05:19:17.793Z,18.70
2022-09-07T05:20:51.053Z,18.80
2022-09-07T05:22:24.953Z,18.90
2022-09-07T05:23:59.964Z,18.90
2022-09-07T05:25:34.413Z,19.00
2022-09-07T05:27:07.633Z,19.10
2022-09-07T05:28:40.505Z,19.10
2022-09-07T05:32:08.279Z,19.20
2022-09-07T05:35:35.424Z,19.20
2022-09-07T05:37:08.539Z,19.20
2022-09-07T05:38:41.879Z,19.20
2022-09-07T05:40:15.461Z,19.20
2022-09-07T05:41:49.962Z,19.20
2022-09-07T05:43:23.352Z,19.20
2022-09-07T05:44:56.546Z,19.20
2022-09-07T05:46:29.467Z,19.20
2022-09-07T05:48:03.112Z,19.10
2022-09-07T05:49:36.179Z,19.10
2022-09-07T05:51:09.874Z,19.10
2022-09-07T05:52:43.075Z,19.00
2022-09-07T05:54:16.009Z,19.00
2022-09-07T05:55:50.694Z,19.00
2022-09-07T05:57:25.091Z,19.00
2022-09-07T05:58:58.246Z,18.90
2022-09-07T06:00:31.812Z,18.90
2022-09-07T06:02:05.702Z,19.00
2022-09-07T06:03:40.813Z,19.00
2022-09-07T06:05:14.375Z,19.10
2022-09-07T06:07:04.591Z,19.20
2022-09-07T06:08:45.902Z,19.20
2022-09-07T06:12:12.167Z,19.40
2022-09-07T06:13:46.470Z,19.60
2022-09-07T06:15:19.620Z,19.60
2022-09-07T06:16:52.588Z,19.70
2022-09-07T06:18:25.827Z,19.80
2022-09-07T06:19:58.806Z,19.80
2022-09-07T06:21:31.924Z,19.80
2022-09-07T06:23:05.113Z,19.80
2022-09-07T06:24:37.951Z,19.80
2022-09-07T06:26:11.996Z,19.90
2022-09-07T06:27:45.378Z,19.90
2022-09-07T06:29:19.821Z,20.00
2022-09-07T06:30:52.834Z,20.10
2022-09-07T06:34:19.183Z,20.20
2022-09-07T06:35:55.710Z,20.30
2022-09-07T06:37:28.765Z,20.50
2022-09-07T06:39:02.556Z,20.60
2022-09-07T06:40:35.850Z,20.80
2022-09-07T06:42:11.380Z,20.90
2022-09-07T06:43:46.145Z,21.10
2022-09-07T06:45:20.621Z,21.20
2022-09-07T06:48:34.560Z,21.30
2022-09-07T06:50:08.629Z,21.30
2022-09-07T06:51:41.675Z,21.30
2022-09-07T06:55:09.119Z,21.40
2022-09-07T06:56:42.266Z,21.50
2022-09-07T06:58:15.100Z,21.50
2022-09-07T06:59:48.464Z,21.60
2022-09-07T07:01:24.447Z,21.70
2022-09-07T07:02:57.550Z,21.80
2022-09-07T07:04:30.539Z,22.00
2022-09-07T07:06:04.199Z,22.10
2022-09-07T07:07:37.358Z,22.20
2022-09-07T07:09:13.173Z,22.30
2022-09-07T07:10:46.325Z,22.40
2022-09-07T07:13:51.046Z,22.50
2022-09-07T07:15:24.412Z,22.60
2022-09-07T07:16:58.774Z,22.60
2022-09-07T07:18:32.240Z,22.70
2022-09-07T07:20:06.664Z,22.80
2022-09-07T07:22:03.433Z,22.90
2022-09-07T07:23:34.266Z,22.90
2022-09-07T07:25:08.210Z,23.00
2022-09-07T07:26:44.491Z,23.00
2022-09-07T07:30:11.653Z,23.20
2022-09-07T07:31:44.901Z,23.20
2022-09-07T07:33:19.441Z,23.20
2022-09-07T07:34:52.431Z,23.20
2022-09-07T07:36:26.971Z,23.10
2022-09-07T07:41:53.850Z,22.90
2022-09-07T07:43:28.661Z,22.70
2022-09-07T07:46:54.892Z,22.40
2022-09-07T07:48:29.271Z,22.20
2022-09-07T07:53:49.543Z,21.80
2022-09-07T07:57:16.986Z,21.60
2022-09-07T07:58:52.373Z,21.50
2022-09-07T08:00:43.821Z,21.40
2022-09-07T08:02:20.554Z,21.50
2022-09-07T08:03:55.205Z,21.50
2022-09-07T08:05:28.245Z,21.60
2022-09-07T08:07:05.569Z,21.60
2022-09-07T08:08:43.110Z,21.60
2022-09-07T08:10:16.239Z,21.70
2022-09-07T08:11:49.152Z,21.80
2022-09-07T08:13:22.343Z,21.80
2022-09-07T08:14:55.623Z,21.90
2022-09-07T08:16:28.730Z,22.00
2022-09-07T08:18:01.912Z,22.00
2022-09-07T08:19:36.002Z,22.00
2022-09-07T08:21:10.377Z,22.10
2022-09-07T08:22:43.394Z,22.20
2022-09-07T08:24:16.376Z,22.20
2022-09-07T08:25:54.219Z,22.20
2022-09-07T08:27:27.963Z,22.30
2022-09-07T08:29:00.916Z,22.40
2022-09-07T08:30:35.062Z,22.40
2022-09-07T08:32:08.164Z,22.50
2022-09-07T08:33:41.148Z,22.60
2022-09-07T08:35:15.784Z,22.60
2022-09-07T08:36:49.315Z,22.70
2022-09-07T08:38:24.141Z,22.70
2022-09-07T08:39:57.264Z,22.70
2022-09-07T08:41:40.617Z,22.70
2022-09-07T08:43:20.267Z,22.70
2022-09-07T08:45:02.457Z,22.70
2022-09-07T08:46:39.471Z,22.70
2022-09-07T08:48:16.846Z,22.80
2022-09-07T08:49:52.838Z,22.80
2022-09-07T08:51:37.814Z,22.80
2022-09-07T08:53:15.439Z,22.80
2022-09-07T08:54:59.035Z,22.90
2022-09-07T08:56:34.927Z,23.00
2022-09-07T08:58:32.700Z,23.00
2022-09-07T09:00:14.347Z,23.10
2022-09-07T09:02:26.969Z,23.10
2022-09-07T09:05:45.582Z,23.20
2022-09-07T09:07:25.002Z,23.30
2022-09-07T09:09:17.966Z,23.30
2022-09-07T09:11:02.704Z,23.30
2022-09-07T09:12:57.334Z,23.40
2022-09-07T09:14:40.551Z,23.40
2022-09-07T09:16:19.292Z,23.50
2022-09-07T09:18:00.434Z,23.50
2022-09-07T09:19:51.221Z,23.60
2022-09-07T09:21:24.783Z,23.70
2022-09-07T09:23:03.403Z,23.70
2022-09-07T09:24:41.495Z,23.70
2022-09-07T09:26:19.291Z,23.80
2022-09-07T09:27:52.283Z,23.80
2022-09-07T09:29:25.451Z,23.90
2022-09-07T09:30:58.276Z,23.90
2022-09-07T09:32:36.676Z,24.00
2022-09-07T09:34:12.509Z,24.00
2022-09-07T09:35:49.196Z,24.00
2022-09-07T09:37:34.889Z,24.10
2022-09-07T09:39:27.065Z,24.10
2022-09-07T09:41:04.784Z,24.20
2022-09-07T09:42:38.796Z,24.30
2022-09-07T09:44:17.119Z,24.40
2022-09-07T09:47:50.762Z,24.40
2022-09-07T09:49:26.278Z,24.50
2022-09-07T09:52:55.197Z,24.50
2022-09-07T09:54:33.955Z,24.60
2022-09-07T09:56:08.655Z,24.70
2022-09-07T10:00:02.658Z,24.80
2022-09-07T10:03:07.618Z,25.00
2022-09-07T10:05:29.495Z,25.20
2022-09-07T10:07:15.578Z,25.40
2022-09-07T10:08:57.361Z,25.60
2022-09-07T10:10:32.844Z,25.80
2022-09-07T10:12:08.237Z,26.00
2022-09-07T10:13:54.794Z,26.10
2022-09-07T10:15:40.144Z,26.30
2022-09-07T10:17:19.499Z,26.60
2022-09-07T10:18:57.013Z,26.80
2022-09-07T10:20:38.916Z,26.90
2022-09-07T10:22:33.797Z,27.00
2022-09-07T10:24:16.545Z,27.10
2022-09-07T10:25:51.123Z,27.30
2022-09-07T10:27:32.875Z,27.50
2022-09-07T10:29:28.657Z,27.50
2022-09-07T10:31:15.090Z,27.40
2022-09-07T10:33:00.150Z,27.50
2022-09-07T10:34:43.947Z,27.50
2022-09-07T10:36:22.184Z,27.50
2022-09-07T10:38:05.876Z,27.40
2022-09-07T10:39:42.654Z,27.10
2022-09-07T10:41:20.098Z,27.00
2022-09-07T10:45:05.020Z,26.90
2022-09-07T10:46:59.467Z,26.60
2022-09-07T10:48:38.614Z,26.50
2022-09-07T10:50:22.512Z,26.30
2022-09-07T10:52:05.400Z,26.30
2022-09-07T10:56:04.534Z,26.60
2022-09-07T10:57:51.673Z,26.70
2022-09-07T11:01:38.665Z,26.90
2022-09-07T11:03:37.672Z,26.90
2022-09-07T11:05:19.151Z,26.70
2022-09-07T11:06:56.163Z,26.80
2022-09-07T11:10:47.178Z,26.80
2022-09-07T11:12:27.826Z,26.70
2022-09-07T11:14:13.612Z,26.70
2022-09-07T11:15:51.566Z,26.70
2022-09-07T11:17:28.505Z,26.50
2022-09-07T11:21:01.116Z,26.20
2022-09-07T11:22:38.802Z,26.10
2022-09-07T11:24:23.114Z,26.10
2022-09-07T11:26:04.859Z,26.10
2022-09-07T11:27:42.012Z,26.00
2022-09-07T11:29:35.695Z,25.90
2022-09-07T11:31:17.463Z,25.80
2022-09-07T11:33:00.494Z,25.90
2022-09-07T11:34:37.882Z,26.10
2022-09-07T11:36:16.245Z,26.30
2022-09-07T11:37:59.188Z,26.50
2022-09-07T11:39:37.050Z,26.70
2022-09-07T11:41:23.269Z,26.90
2022-09-07T11:43:03.811Z,27.10
2022-09-07T11:44:45.376Z,27.20
2022-09-07T11:46:24.902Z,27.40
2022-09-07T11:48:02.370Z,27.70
2022-09-07T11:49:35.287Z,28.00
2022-09-07T11:51:10.404Z,28.20
2022-09-07T11:52:53.567Z,28.40
2022-09-07T11:54:35.138Z,28.40
2022-09-07T11:56:14.926Z,28.40
2022-09-07T11:58:06.696Z,28.50
2022-09-07T11:59:53.361Z,28.60
2022-09-07T12:01:35.909Z,28.80
2022-09-07T12:03:26.312Z,28.90
2022-09-07T12:05:21.129Z,28.90
2022-09-07T12:07:23.637Z,28.80
2022-09-07T12:09:12.952Z,28.80
2022-09-07T12:11:11.439Z,28.70
2022-09-07T12:13:03.475Z,28.70
2022-09-07T12:14:45.217Z,28.70
2022-09-07T12:16:24.120Z,28.80
2022-09-07T12:18:17.245Z,28.90
2022-09-07T12:20:15.529Z,29.00
2022-09-07T12:21:55.477Z,29.20
2022-09-07T12:23:31.042Z,29.20
2022-09-07T12:25:09.126Z,29.10
2022-09-07T12:26:51.514Z,29.10
2022-09-07T12:28:59.233Z,29.10
2022-09-07T12:31:01.362Z,29.20
2022-09-07T12:33:07.059Z,29.30
2022-09-07T12:35:01.801Z,29.30
2022-09-07T12:36:49.431Z,29.30
2022-09-07T12:38:59.146Z,29.30
2022-09-07T12:40:49.946Z,29.30
2022-09-07T12:42:33.129Z,29.10
2022-09-07T12:44:11.158Z,29.10
2022-09-07T12:45:52.740Z,29.10
2022-09-07T12:47:31.217Z,29.00
2022-09-07T12:49:17.593Z,29.00
2022-09-07T12:50:56.843Z,28.90
2022-09-07T12:52:49.075Z,28.90
2022-09-07T12:54:29.434Z,29.00
2022-09-07T12:56:24.459Z,29.10
2022-09-07T12:58:12.108Z,29.30
2022-09-07T12:59:57.279Z,29.30
2022-09-07T13:01:37.989Z,29.30
2022-09-07T13:03:53.019Z,29.30
2022-09-07T13:05:41.867Z,29.10
2022-09-07T13:07:38.877Z,29.00
2022-09-07T13:09:30.074Z,28.90
2022-09-07T13:11:18.079Z,28.90
2022-09-07T13:12:57.796Z,28.80
2022-09-07T13:14:34.504Z,28.80
2022-09-07T13:16:30.086Z,28.80
2022-09-07T13:18:03.728Z,28.70
2022-09-07T13:20:18.717Z,28.80
2022-09-07T13:21:51.669Z,29.00
2022-09-07T13:23:25.964Z,29.40
2022-09-07T13:25:00.492Z,29.60
2022-09-07T13:26:53.234Z,29.90
2022-09-07T13:28:38.602Z,30.10
2022-09-07T13:30:44.704Z,30.30
2022-09-07T13:33:07.935Z,30.60
2022-09-07T13:34:43.049Z,30.70
2022-09-07T13:36:32.926Z,30.70
2022-09-07T13:38:06.318Z,30.60
2022-09-07T13:39:42.978Z,30.50
2022-09-07T13:41:19.707Z,30.30
2022-09-07T13:42:53.833Z,30.20
2022-09-07T13:44:33.055Z,30.00
2022-09-07T13:46:10.699Z,29.60
2022-09-07T13:47:54.314Z,29.40
2022-09-07T13:49:47.114Z,29.20
2022-09-07T13:51:25.857Z,29.00
2022-09-07T13:53:33.866Z,28.80
2022-09-07T13:55:25.987Z,28.60
2022-09-07T13:57:07.005Z,28.60
2022-09-07T13:58:42.980Z,28.60
2022-09-07T14:00:16.855Z,28.70
2022-09-07T14:01:51.382Z,28.60
2022-09-07T14:03:26.906Z,28.50
2022-09-07T14:05:01.711Z,28.40
2022-09-07T14:06:37.374Z,28.40
2022-09-07T14:08:25.795Z,28.40
2022-09-07T14:10:19.602Z,28.40
2022-09-07T14:11:54.301Z,28.40
2022-09-07T14:13:27.444Z,28.40
2022-09-07T14:15:18.142Z,28.40
2022-09-07T14:16:57.554Z,28.40
2022-09-07T14:18:32.844Z,28.50
2022-09-07T14:20:06.966Z,28.50
2022-09-07T14:21:41.597Z,28.50
2022-09-07T14:23:23.110Z,28.50
2022-09-07T14:24:57.535Z,28.40
2022-09-07T14:26:30.640Z,28.40
2022-09-07T14:28:03.786Z,28.30
2022-09-07T14:29:37.834Z,28.30
2022-09-07T14:31:14.383Z,28.20
2022-09-07T14:32:48.651Z,28.20
2022-09-07T14:34:25.750Z,28.20
2022-09-07T14:36:00.081Z,28.10
2022-09-07T14:37:34.698Z,28.10
2022-09-07T14:39:10.770Z,28.00
2022-09-07T14:40:44.241Z,28.00
2022-09-07T14:42:22.884Z,27.90
2022-09-07T14:43:57.723Z,27.90
2022-09-07T14:45:35.110Z,27.90
2022-09-07T14:47:21.108Z,27.80
2022-09-07T14:48:55.794Z,27.80
2022-09-07T14:50:39.156Z,27.70
2022-09-07T14:52:19.156Z,27.70
2022-09-07T14:53:56.217Z,27.70
2022-09-07T14:55:32.471Z,27.70
2022-09-07T14:57:24.446Z,27.70
2022-09-07T14:58:57.394Z,27.70
2022-09-07T15:00:31.537Z,27.70
2022-09-07T15:02:25.013Z,27.60
2022-09-07T15:04:00.591Z,27.60
2022-09-07T15:05:34.432Z,27.60
2022-09-07T15:07:28.842Z,27.70
2022-09-07T15:09:04.361Z,27.60
2022-09-07T15:10:41.205Z,27.60
2022-09-07T15:12:27.145Z,27.60
2022-09-07T15:14:12.657Z,27.50
2022-09-07T15:15:56.439Z,27.50
2022-09-07T15:17:49.006Z,27.50
2022-09-07T15:19:32.491Z,27.50
2022-09-07T15:21:05.294Z,27.50
2022-09-07T15:22:38.214Z,27.60
2022-09-07T15:24:12.885Z,27.60
2022-09-07T15:25:51.194Z,27.60
2022-09-07T15:27:29.743Z,27.60
2022-09-07T15:29:11.386Z,27.70
2022-09-07T15:30:45.052Z,27.70
2022-09-07T15:32:18.825Z,27.80
2022-09-07T15:33:50.967Z,27.80
2022-09-07T15:35:24.172Z,27.80
2022-09-07T15:37:00.142Z,27.70
2022-09-07T15:40:20.368Z,27.60
2022-09-07T15:41:54.531Z,27.50
2022-09-07T15:43:28.508Z,27.40
2022-09-07T15:45:01.916Z,27.30
2022-09-07T15:46:37.103Z,27.20
2022-09-07T15:48:14.809Z,27.10
2022-09-07T15:49:51.385Z,27.00
2022-09-07T15:55:13.556Z,26.70
2022-09-07T15:58:43.555Z,26.70
2022-09-07T16:00:16.883Z,26.70
2022-09-07T16:01:53.380Z,26.70
2022-09-07T16:03:26.663Z,26.50
2022-09-07T16:04:59.753Z,26.60
2022-09-07T16:06:35.772Z,26.60
2022-09-07T16:10:04.439Z,26.50
2022-09-07T16:11:37.567Z,26.40
2022-09-07T16:13:16.679Z,26.40
2022-09-07T16:14:56.324Z,26.40
2022-09-07T16:18:23.767Z,26.40
2022-09-07T16:19:56.934Z,26.40
2022-09-07T16:21:29.879Z,26.40
2022-09-07T16:23:17.971Z,26.40
2022-09-07T16:24:50.915Z,26.40
2022-09-07T16:26:24.869Z,26.40
2022-09-07T16:27:58.052Z,26.40
2022-09-07T16:29:32.507Z,26.40
2022-09-07T16:31:08.742Z,26.50
2022-09-07T16:32:45.130Z,26.50
2022-09-07T16:34:21.153Z,26.60
2022-09-07T16:35:59.550Z,26.50
2022-09-07T16:37:32.961Z,26.50
2022-09-07T16:39:05.945Z,26.40
2022-09-07T16:40:41.778Z,26.40
2022-09-07T16:42:15.054Z,26.40
2022-09-07T16:43:50.179Z,26.30
2022-09-07T16:47:17.666Z,26.20
2022-09-07T16:48:52.460Z,26.10
2022-09-07T16:50:25.388Z,26.10
2022-09-07T16:51:59.067Z,26.00
2022-09-07T16:53:34.239Z,26.00
2022-09-07T16:55:07.438Z,26.00
2022-09-07T16:56:40.483Z,25.90
2022-09-07T17:00:07.522Z,26.00
2022-09-07T17:01:41.797Z,25.90
2022-09-07T17:03:14.950Z,25.90
2022-09-07T17:04:48.078Z,25.90
2022-09-07T17:06:23.701Z,25.90
2022-09-07T17:07:57.850Z,25.80
2022-09-07T17:09:30.908Z,25.70
2022-09-07T17:11:06.022Z,25.60
2022-09-07T17:12:39.135Z,25.60
2022-09-07T17:14:13.358Z,25.70
2022-09-07T17:15:46.273Z,25.70
2022-09-07T17:17:23.254Z,25.80
2022-09-07T17:20:55.409Z,25.80
2022-09-07T17:22:29.547Z,25.80
2022-09-07T17:24:04.163Z,25.80
2022-09-07T17:25:37.861Z,25.80
2022-09-07T17:27:13.194Z,25.80
2022-09-07T17:28:49.966Z,25.80
2022-09-07T17:30:24.754Z,25.70
2022-09-07T17:33:58.590Z,25.70
2022-09-07T17:35:36.598Z,25.70
2022-09-07T17:37:10.364Z,25.60
2022-09-07T17:40:36.112Z,25.40
2022-09-07T17:42:09.851Z,25.40
2022-09-07T17:43:45.701Z,25.40
2022-09-07T17:45:18.945Z,25.30
2022-09-07T17:46:51.726Z,25.20
2022-09-07T17:48:24.701Z,25.20
2022-09-07T17:49:59.016Z,25.10
2022-09-07T17:51:32.121Z,25.10
2022-09-07T17:53:04.831Z,25.00
2022-09-07T17:54:37.789Z,24.90
2022-09-07T17:56:13.577Z,24.80
2022-09-07T17:57:46.441Z,24.70
2022-09-07T18:01:14.864Z,24.60
2022-09-07T18:02:47.859Z,24.50
2022-09-07T18:04:21.483Z,24.50
2022-09-07T18:05:56.488Z,24.50
2022-09-07T18:07:29.532Z,24.40
2022-09-07T18:09:03.055Z,24.30
2022-09-07T18:12:29.110Z,24.30
2022-09-07T18:14:02.039Z,24.20
2022-09-07T18:15:39.893Z,24.10
2022-09-07T18:17:12.813Z,24.10
2022-09-07T18:18:46.737Z,24.10
2022-09-07T18:20:19.633Z,24.10
2022-09-07T18:21:53.998Z,24.10
2022-09-07T18:23:27.022Z,24.10
2022-09-07T18:24:59.805Z,24.20
2022-09-07T18:26:33.797Z,24.20
2022-09-07T18:29:59.985Z,24.30
2022-09-07T18:31:32.902Z,24.30
2022-09-07T18:33:05.836Z,24.30
2022-09-07T18:34:41.288Z,24.30
2022-09-07T18:36:15.281Z,24.30
2022-09-07T18:37:50.069Z,24.30
2022-09-07T18:39:23.077Z,24.40
2022-09-07T18:41:03.167Z,24.40
2022-09-07T18:42:36.324Z,24.40
2022-09-07T18:46:08.451Z,24.40
2022-09-07T18:47:43.511Z,24.30
2022-09-07T18:49:16.482Z,24.20
2022-09-07T18:50:54.570Z,24.20
2022-09-07T18:54:22.706Z,24.10
2022-09-07T18:55:55.641Z,24.10
2022-09-07T18:57:28.581Z,24.10
2022-09-07T18:59:01.717Z,24.00
2022-09-07T19:00:34.713Z,24.00
2022-09-07T19:02:08.480Z,23.90
2022-09-07T19:03:42.336Z,23.90
2022-09-07T19:07:08.500Z,23.80
2022-09-07T19:08:42.322Z,23.80
2022-09-07T19:10:17.696Z,23.80
2022-09-07T19:11:50.998Z,23.80
2022-09-07T19:13:23.986Z,23.80
2022-09-07T19:14:56.958Z,23.80
2022-09-07T19:16:30.089Z,23.80
2022-09-07T19:18:04.562Z,23.80
2022-09-07T19:19:38.442Z,23.80
2022-09-07T19:21:17.048Z,23.80
2022-09-07T19:22:50.073Z,23.70
2022-09-07T19:24:23.106Z,23.70
2022-09-07T19:25:58.463Z,23.70
2022-09-07T19:27:32.980Z,23.60
2022-09-07T19:29:10.264Z,23.50
2022-09-07T19:30:43.229Z,23.40
2022-09-07T19:32:17.046Z,23.40
2022-09-07T19:33:56.073Z,23.40
2022-09-07T19:35:30.104Z,23.40
2022-09-07T19:37:03.291Z,23.40
2022-09-07T19:38:36.713Z,23.30
2022-09-07T19:40:14.808Z,23.20
2022-09-07T19:41:52.855Z,23.10
2022-09-07T19:43:26.402Z,23.00
2022-09-07T19:44:59.688Z,22.90
2022-09-07T19:46:33.114Z,22.90
2022-09-07T19:48:06.561Z,22.80
2022-09-07T19:49:39.812Z,22.80
2022-09-07T19:51:15.490Z,22.70
2022-09-07T19:52:48.721Z,22.70
2022-09-07T19:54:21.685Z,22.60
2022-09-07T19:56:02.707Z,22.60
2022-09-07T19:57:36.987Z,22.50
2022-09-07T19:59:10.618Z,22.50
2022-09-07T20:00:43.587Z,22.40
2022-09-07T20:02:16.589Z,22.40
2022-09-07T20:03:57.410Z,22.40
2022-09-07T20:05:31.193Z,22.30
2022-09-07T20:07:04.224Z,22.30
2022-09-07T20:08:37.930Z,22.30
2022-09-07T20:10:11.952Z,22.30
2022-09-07T20:11:46.880Z,22.30
2022-09-07T20:13:21.884Z,22.30
2022-09-07T20:14:55.027Z,22.40
2022-09-07T20:16:30.171Z,22.40
2022-09-07T20:18:03.420Z,22.50
2022-09-07T20:19:36.418Z,22.50
2022-09-07T20:21:11.505Z,22.60
2022-09-07T20:22:44.479Z,22.70
2022-09-07T20:24:24.650Z,22.60
2022-09-07T20:25:58.284Z,22.70
2022-09-07T20:27:32.143Z,22.70
2022-09-07T20:29:26.145Z,22.70
2022-09-07T20:30:59.427Z,22.70
2022-09-07T20:32:32.547Z,22.70
2022-09-07T20:34:05.629Z,22.60
2022-09-07T20:35:38.623Z,22.60
2022-09-07T20:37:11.688Z,22.50
2022-09-07T20:39:06.839Z,22.50
2022-09-07T20:40:55.127Z,22.50
2022-09-07T20:42:28.124Z,22.60
2022-09-07T20:44:02.905Z,22.60
2022-09-07T20:45:37.693Z,22.50
2022-09-07T20:47:10.719Z,22.60
2022-09-07T20:48:43.842Z,22.50
2022-09-07T20:50:16.878Z,22.50
2022-09-07T20:51:49.785Z,22.50
2022-09-07T20:53:22.806Z,22.40
2022-09-07T20:54:55.608Z,22.40
2022-09-07T20:56:30.022Z,22.40
2022-09-07T20:58:03.241Z,22.40
2022-09-07T20:59:36.259Z,22.40
2022-09-07T21:01:10.836Z,22.40
2022-09-07T21:02:43.900Z,22.50
2022-09-07T21:04:16.878Z,22.60
2022-09-07T21:05:49.949Z,22.60
2022-09-07T21:07:22.796Z,22.60
2022-09-07T21:08:57.133Z,22.70
2022-09-07T21:10:30.352Z,22.70
2022-09-07T21:12:03.658Z,22.70
2022-09-07T21:13:36.720Z,22.70
2022-09-07T21:15:10.091Z,22.60
2022-09-07T21:16:44.440Z,22.50
2022-09-07T21:18:18.915Z,22.50
2022-09-07T21:19:51.970Z,22.40
2022-09-07T21:21:26.602Z,22.40
2022-09-07T21:22:59.591Z,22.30
2022-09-07T21:24:32.901Z,22.30
2022-09-07T21:26:05.633Z,22.20
2022-09-07T21:27:38.932Z,22.20
2022-09-07T21:29:16.735Z,22.10
2022-09-07T21:30:57.248Z,22.10
2022-09-07T21:32:31.610Z,22.00
2022-09-07T21:34:04.583Z,22.00
2022-09-07T21:35:37.667Z,22.00
2022-09-07T21:37:10.418Z,21.90
2022-09-07T21:38:43.358Z,21.90
2022-09-07T21:41:54.073Z,21.90
2022-09-07T21:43:27.074Z,21.80
2022-09-07T21:45:00.374Z,21.80
2022-09-07T21:46:34.614Z,21.80
2022-09-07T21:48:08.996Z,21.70
2022-09-07T21:49:44.484Z,21.70
2022-09-07T21:51:18.394Z,21.60
2022-09-07T21:52:51.499Z,21.60
2022-09-07T21:54:24.289Z,21.50
2022-09-07T21:55:56.439Z,21.40
2022-09-07T21:57:29.366Z,21.40
2022-09-07T21:59:03.057Z,21.40
2022-09-07T22:00:38.592Z,21.30
2022-09-07T22:02:11.710Z,21.30
2022-09-07T22:03:46.405Z,21.30
2022-09-07T22:05:19.347Z,21.30
2022-09-07T22:06:52.294Z,21.30
2022-09-07T22:08:25.216Z,21.20
2022-09-07T22:09:58.278Z,21.20
2022-09-07T22:11:31.713Z,21.20
2022-09-07T22:13:04.886Z,21.20